Time;durP1;ratioP1;P1;durP2;ratioP2;P2;SDS_P1;SDS_P2;PMS_P1;PMS_P2;Temp;Humidity;BMP_temperature;BMP_pressure;BME280_temperature;BME280_humidity;BME280_pressure;Samples;Min_cycle;Max_cycle;Signal;HPM_P1;HPM_P2
2021/01/13 12:42:30;;;;;;;4.15;2.80;;;7.00;85.60;;;;;;5141065;27;27375;-48
2021/01/13 12:45:14;;;;;;;7.40;2.75;;;7.20;86.30;;;;;;5121991;27;27518;-49
2021/01/13 12:47:59;;;;;;;4.38;2.42;;;7.70;85.00;;;;;;5122113;27;27483;-47
2021/01/13 12:50:43;;;;;;;4.63;2.45;;;8.20;84.50;;;;;;5122013;27;27481;-50
2021/01/13 12:53:28;;;;;;;4.30;2.40;;;8.70;83.50;;;;;;5121904;27;27447;-47
2021/01/13 12:56:26;;;;;;;3.80;2.20;;;9.20;82.10;;;;;;5118574;27;27320;-50
2021/01/13 12:59:11;;;;;;;3.67;2.08;;;9.30;79.80;;;;;;5121557;27;27459;-49
2021/01/13 13:01:56;;;;;;;6.38;2.42;;;9.10;78.80;;;;;;5121125;27;27474;-50
2021/01/13 13:04:40;;;;;;;3.97;1.92;;;8.90;78.50;;;;;;5121497;27;27873;-50
2021/01/13 13:07:25;;;;;;;4.70;2.50;;;8.60;78.70;;;;;;5121688;27;27417;-53
2021/01/13 13:10:10;;;;;;;5.68;1.85;;;8.50;78.90;;;;;;5121575;27;27446;-49
2021/01/13 13:12:55;;;;;;;5.68;1.88;;;8.30;79.50;;;;;;5121665;27;27323;-49
2021/01/13 13:15:39;;;;;;;7.95;1.90;;;8.20;80.00;;;;;;5102701;27;27414;-49
2021/01/13 13:18:24;;;;;;;5.60;1.92;;;8.40;80.40;;;;;;5121253;27;27451;-49
2021/01/13 13:21:12;;;;;;;3.45;1.48;;;8.50;80.20;;;;;;5121365;27;27396;-50
2021/01/13 13:23:57;;;;;;;2.63;1.83;;;8.70;79.20;;;;;;5121498;27;27457;-51
2021/01/13 13:26:41;;;;;;;3.35;2.05;;;8.90;78.60;;;;;;5121113;27;27428;-50
2021/01/13 13:29:25;;;;;;;4.15;1.63;;;8.90;78.40;;;;;;5120910;27;27511;-49
2021/01/13 13:32:10;;;;;;;5.18;1.60;;;9.00;77.80;;;;;;5121395;27;27434;-49
2021/01/13 13:34:55;;;;;;;3.25;1.48;;;9.00;78.00;;;;;;5121054;27;26900;-52
2021/01/13 13:37:39;;;;;;;3.60;1.48;;;8.90;77.50;;;;;;5120912;27;27638;-48
2021/01/13 13:40:24;;;;;;;5.03;1.52;;;8.80;77.60;;;;;;5101738;27;27474;-50
2021/01/13 13:43:09;;;;;;;4.20;1.85;;;8.50;77.30;;;;;;5100445;28;27486;-50
2021/01/13 13:45:53;;;;;;;2.88;1.77;;;8.30;77.90;;;;;;5100234;28;27444;-50
2021/01/13 13:48:38;;;;;;;3.72;1.80;;;8.30;78.80;;;;;;5100206;28;27349;-52
2021/01/13 13:51:22;;;;;;;4.85;1.90;;;8.30;79.20;;;;;;5100325;28;27357;-52
2021/01/13 13:54:07;;;;;;;2.90;1.55;;;8.40;79.30;;;;;;5086735;28;27375;-54
2021/01/13 13:56:55;;;;;;;3.80;1.60;;;8.40;79.50;;;;;;5087005;28;27352;-50
2021/01/13 13:59:40;;;;;;;2.75;1.55;;;8.50;79.60;;;;;;5086613;28;27473;-50
2021/01/13 14:02:24;;;;;;;4.10;1.80;;;8.50;79.30;;;;;;5086796;28;27413;-51
2021/01/13 14:05:10;;;;;;;5.63;1.80;;;8.40;79.00;;;;;;5086421;28;27614;-51
2021/01/13 14:07:54;;;;;;;4.22;1.85;;;8.30;79.20;;;;;;5086675;28;27397;-49
2021/01/13 14:10:39;;;;;;;4.38;1.73;;;8.30;79.10;;;;;;5086615;28;27467;-52
2021/01/13 14:13:24;;;;;;;4.72;1.92;;;8.10;79.60;;;;;;5086264;28;27508;-52
2021/01/13 14:16:09;;;;;;;6.90;2.13;;;8.00;79.80;;;;;;5086688;28;27525;-51
2021/01/13 14:18:53;;;;;;;2.80;2.13;;;7.90;79.70;;;;;;5086443;28;27444;-48
2021/01/13 14:21:38;;;;;;;3.13;2.03;;;7.80;79.50;;;;;;5086388;28;27349;-52
2021/01/13 14:24:23;;;;;;;5.78;1.95;;;7.60;80.10;;;;;;5086358;28;27538;-47
2021/01/13 14:27:08;;;;;;;6.70;2.47;;;7.50;80.60;;;;;;5086169;28;27328;-50
2021/01/13 14:29:53;;;;;;;6.70;3.00;;;7.40;80.70;;;;;;5086292;28;27388;-53
2021/01/13 14:32:38;;;;;;;4.05;2.65;;;7.30;80.90;;;;;;5070459;28;27601;-53
2021/01/13 14:35:23;;;;;;;7.25;3.40;;;7.10;81.10;;;;;;5070912;28;27551;-51
2021/01/13 14:38:07;;;;;;;6.45;2.55;;;6.90;81.50;;;;;;5082973;28;27317;-52
2021/01/13 14:40:53;;;;;;;7.18;2.70;;;6.80;81.70;;;;;;5085222;28;27341;-50
2021/01/13 14:43:40;;;;;;;4.85;2.40;;;6.70;81.70;;;;;;5085773;28;27328;-51
2021/01/13 14:46:25;;;;;;;13.27;3.85;;;6.60;82.00;;;;;;5067370;28;27461;-48
2021/01/13 14:49:09;;;;;;;4.05;2.42;;;6.50;82.30;;;;;;5086027;28;27438;-52
2021/01/13 14:51:54;;;;;;;6.93;3.10;;;6.30;82.60;;;;;;5085536;28;27469;-50
2021/01/13 14:54:39;;;;;;;8.13;3.10;;;6.20;82.70;;;;;;5070809;28;27486;-54
2021/01/13 14:57:23;;;;;;;5.82;2.75;;;6.10;83.10;;;;;;5085868;28;27459;-49
2021/01/13 15:00:08;;;;;;;6.97;3.40;;;6.00;83.30;;;;;;5085029;28;27333;-49
2021/01/13 15:02:53;;;;;;;6.10;3.13;;;5.80;83.80;;;;;;5070717;28;27448;-53
2021/01/13 15:05:39;;;;;;;5.43;2.70;;;5.70;84.00;;;;;;5081635;28;28062;-52
2021/01/13 15:08:23;;;;;;;9.95;3.80;;;5.60;84.30;;;;;;5085623;28;27470;-49
2021/01/13 15:11:08;;;;;;;6.13;3.60;;;5.50;84.50;;;;;;5085432;28;27363;-51
2021/01/13 15:13:52;;;;;;;5.40;3.55;;;5.40;84.90;;;;;;5085566;28;27391;-53
2021/01/13 15:16:36;;;;;;;4.40;2.85;;;5.30;85.00;;;;;;5066909;28;27385;-51
2021/01/13 15:19:21;;;;;;;6.00;3.25;;;5.20;85.20;;;;;;5067112;28;27360;-51
2021/01/13 15:22:06;;;;;;;6.90;3.22;;;5.10;85.70;;;;;;5084899;28;27392;-53
2021/01/13 15:24:50;;;;;;;10.02;4.03;;;4.90;86.20;;;;;;5084960;28;26880;-51
2021/01/13 15:27:35;;;;;;;7.80;3.50;;;4.80;86.70;;;;;;5085021;28;27333;-49
2021/01/13 15:30:19;;;;;;;6.63;3.55;;;4.80;87.30;;;;;;5084981;28;27403;-51
2021/01/13 15:33:04;;;;;;;6.18;3.55;;;4.60;87.80;;;;;;5070004;28;27424;-51
2021/01/13 15:35:49;;;;;;;5.25;3.17;;;4.50;88.20;;;;;;5085036;28;27325;-53
2021/01/13 15:38:34;;;;;;;5.82;3.72;;;4.40;88.80;;;;;;5084834;28;27408;-51
2021/01/13 15:41:18;;;;;;;6.90;3.35;;;4.30;89.50;;;;;;5084189;28;27381;-51
2021/01/13 15:44:03;;;;;;;7.57;3.45;;;4.20;90.00;;;;;;5084853;28;27477;-53
2021/01/13 15:46:48;;;;;;;5.72;3.92;;;4.10;90.20;;;;;;5084721;28;27416;-52
2021/01/13 15:49:33;;;;;;;5.38;3.55;;;4.00;90.40;;;;;;5085162;28;27408;-48
2021/01/13 15:52:19;;;;;;;6.50;3.20;;;3.90;90.60;;;;;;5084057;28;27473;-51
2021/01/13 15:55:05;;;;;;;7.78;4.82;;;3.80;90.70;;;;;;5085186;28;27478;-49
2021/01/13 15:57:55;;;;;;;9.68;5.65;;;3.70;90.80;;;;;;5084670;28;27325;-49
2021/01/13 16:00:40;;;;;;;10.38;6.03;;;3.60;90.90;;;;;;5084749;28;27399;-51
2021/01/13 16:03:26;;;;;;;9.95;5.82;;;3.50;91.00;;;;;;5085118;28;27422;-48
2021/01/13 16:06:17;;;;;;;12.82;7.05;;;3.40;91.10;;;;;;5084919;28;27463;-50
2021/01/13 16:09:04;;;;;;;12.60;7.07;;;3.30;91.20;;;;;;5057172;28;27395;-51
2021/01/13 16:11:49;;;;;;;15.45;8.18;;;3.30;91.30;;;;;;5070101;28;27979;-52
2021/01/13 16:14:34;;;;;;;19.95;9.18;;;3.20;91.50;;;;;;5055835;28;27448;-49
2021/01/13 16:17:19;;;;;;;15.15;8.88;;;3.20;91.60;;;;;;5084713;28;26894;-51
2021/01/13 16:20:05;;;;;;;16.75;9.43;;;3.10;91.70;;;;;;5082844;28;27449;-49
2021/01/13 16:22:50;;;;;;;15.73;8.77;;;3.10;91.80;;;;;;5084595;28;27420;-53
2021/01/13 16:25:35;;;;;;;17.38;9.65;;;3.00;91.90;;;;;;5069494;28;27418;-49
2021/01/13 16:28:20;;;;;;;14.23;8.38;;;3.00;92.00;;;;;;5084587;28;27462;-49
2021/01/13 16:31:05;;;;;;;15.45;8.40;;;2.90;92.10;;;;;;5084229;28;27487;-49
2021/01/13 16:33:50;;;;;;;18.98;9.23;;;2.90;92.20;;;;;;5069417;28;27862;-50
2021/01/13 16:36:35;;;;;;;14.23;8.65;;;2.80;92.30;;;;;;5055196;28;27494;-49
2021/01/13 16:39:20;;;;;;;14.45;8.45;;;2.80;92.50;;;;;;5081155;28;27400;-49
2021/01/13 16:42:08;;;;;;;17.27;9.35;;;2.70;92.60;;;;;;5083572;28;27649;-49
2021/01/13 16:44:56;;;;;;;13.27;8.05;;;2.70;92.80;;;;;;5084389;28;27980;-49
2021/01/13 16:47:41;;;;;;;14.35;8.43;;;2.60;92.80;;;;;;5068653;28;27388;-49
2021/01/13 16:50:26;;;;;;;14.88;7.32;;;2.60;93.00;;;;;;5084050;28;27360;-48
2021/01/13 16:53:11;;;;;;;14.80;8.50;;;2.50;93.10;;;;;;5083938;28;27381;-49
2021/01/13 16:55:56;;;;;;;15.30;8.48;;;2.50;93.20;;;;;;5083884;28;27324;-52
2021/01/13 16:58:41;;;;;;;13.07;7.95;;;2.50;93.40;;;;;;5084101;28;27377;-50
2021/01/13 17:01:26;;;;;;;11.63;7.20;;;2.40;93.40;;;;;;5083941;28;27404;-49
2021/01/13 17:04:16;;;;;;;13.35;7.53;;;2.40;93.60;;;;;;5069126;28;27385;-50
2021/01/13 17:07:01;;;;;;;13.35;7.88;;;2.30;93.70;;;;;;5084119;28;27397;-48
2021/01/13 17:09:45;;;;;;;25.45;7.80;;;2.30;93.80;;;;;;5083688;28;27496;-51
2021/01/13 17:12:30;;;;;;;13.23;7.45;;;2.30;93.90;;;;;;5083871;28;27470;-49
2021/01/13 17:15:16;;;;;;;11.10;7.15;;;2.20;93.90;;;;;;5068346;28;27439;-49
2021/01/13 17:18:01;;;;;;;13.23;7.25;;;2.20;94.00;;;;;;5068710;28;27492;-49
2021/01/13 17:20:47;;;;;;;11.23;6.53;;;2.20;94.10;;;;;;5068402;28;27493;-50
2021/01/13 17:23:31;;;;;;;11.05;6.88;;;2.20;94.20;;;;;;5083438;28;27414;-52
2021/01/13 17:26:16;;;;;;;11.13;6.32;;;2.20;94.30;;;;;;5068966;28;27407;-49
2021/01/13 17:29:01;;;;;;;11.35;6.55;;;2.10;94.40;;;;;;5071652;28;27534;-50
2021/01/13 17:31:46;;;;;;;11.05;6.43;;;2.10;94.50;;;;;;5072008;28;27510;-49
2021/01/13 17:34:30;;;;;;;11.25;6.22;;;2.10;94.50;;;;;;5086839;28;27495;-48
2021/01/13 17:37:15;;;;;;;10.82;6.60;;;2.10;94.60;;;;;;5086736;28;27417;-48
2021/01/13 17:40:05;;;;;;;9.60;6.60;;;2.20;94.60;;;;;;5086542;28;27478;-47
2021/01/13 17:42:54;;;;;;;8.27;5.72;;;2.20;94.70;;;;;;5086332;28;27337;-52
2021/01/13 17:45:39;;;;;;;12.43;6.40;;;2.20;94.70;;;;;;5086532;28;27476;-50
2021/01/13 17:48:24;;;;;;;8.13;6.32;;;2.20;94.70;;;;;;5086843;28;27513;-47
2021/01/13 17:51:09;;;;;;;9.60;5.97;;;2.20;94.70;;;;;;5086475;28;27436;-49
2021/01/13 17:53:53;;;;;;;15.57;7.25;;;2.20;94.70;;;;;;5086445;28;27523;-52
2021/01/13 17:56:39;;;;;;;13.70;7.07;;;2.20;94.70;;;;;;5071362;28;27446;-49
2021/01/13 17:59:23;;;;;;;16.30;8.43;;;2.20;94.70;;;;;;5071773;28;27353;-46
2021/01/13 18:02:09;;;;;;;18.70;10.68;;;2.20;94.80;;;;;;5086249;28;27333;-48
2021/01/13 18:05:13;;;;;;;20.13;9.85;;;2.20;94.80;;;;;;5071595;28;27494;-48
2021/01/13 18:08:04;;;;;;;17.65;9.02;;;2.20;94.80;;;;;;5086763;28;27372;-50
2021/01/13 18:10:49;;;;;;;19.85;10.57;;;2.20;94.80;;;;;;5086025;28;27999;-50
2021/01/13 18:13:34;;;;;;;23.45;11.77;;;2.20;94.80;;;;;;5086243;28;27364;-50
2021/01/13 18:16:19;;;;;;;21.23;10.35;;;2.20;94.80;;;;;;5083140;28;27419;-51
2021/01/13 18:19:03;;;;;;;23.60;11.10;;;2.20;94.80;;;;;;5086203;28;27444;-50
2021/01/13 18:21:48;;;;;;;21.88;10.60;;;2.20;94.80;;;;;;5085926;28;27541;-49
2021/01/13 18:24:32;;;;;;;22.90;11.80;;;2.20;94.80;;;;;;5086435;28;27498;-47
2021/01/13 18:27:17;;;;;;;20.13;10.82;;;2.20;94.80;;;;;;5086368;28;27465;-50
2021/01/13 18:30:02;;;;;;;21.70;11.82;;;2.20;94.80;;;;;;5086580;28;27410;-48
2021/01/13 18:32:51;;;;;;;18.92;10.75;;;2.30;94.90;;;;;;5086030;28;27451;-53
2021/01/13 18:35:37;;;;;;;22.20;10.98;;;2.20;94.90;;;;;;5085935;28;27383;-50
2021/01/13 18:38:21;;;;;;;21.80;10.13;;;2.30;94.90;;;;;;5082753;28;27539;-52
2021/01/13 18:41:06;;;;;;;18.98;9.30;;;2.30;94.90;;;;;;5085490;28;27412;-48
2021/01/13 18:43:51;;;;;;;15.65;8.77;;;2.20;94.90;;;;;;5071217;28;26907;-51
2021/01/13 18:46:46;;;;;;;18.30;8.65;;;2.20;94.90;;;;;;5086635;28;27394;-51
2021/01/13 18:49:31;;;;;;;16.67;8.95;;;2.20;94.90;;;;;;5086155;28;27476;-48
2021/01/13 18:52:16;;;;;;;17.60;8.70;;;2.20;94.90;;;;;;5085706;28;27426;-48
2021/01/13 18:55:00;;;;;;;14.10;7.72;;;2.20;94.90;;;;;;5085866;28;27396;-50
2021/01/13 18:57:45;;;;;;;13.10;7.72;;;2.20;94.90;;;;;;5082367;28;27325;-47
2021/01/13 19:00:32;;;;;;;19.02;8.55;;;2.20;95.00;;;;;;5067458;28;27372;-45
2021/01/13 19:03:17;;;;;;;12.75;7.70;;;2.20;95.00;;;;;;5085435;28;27452;-47
2021/01/13 19:06:01;;;;;;;13.60;7.93;;;2.20;95.10;;;;;;5085724;28;27376;-49
2021/01/13 19:08:46;;;;;;;13.75;7.97;;;2.20;95.20;;;;;;5067109;28;27870;-47
2021/01/13 19:11:40;;;;;;;17.30;8.57;;;2.20;95.20;;;;;;5085690;28;27395;-49
2021/01/13 19:14:25;;;;;;;15.23;7.43;;;2.20;95.20;;;;;;5085380;28;27388;-48
2021/01/13 19:17:10;;;;;;;16.75;8.45;;;2.20;95.20;;;;;;5085572;28;27321;-49
2021/01/13 19:19:54;;;;;;;14.25;6.85;;;2.20;95.20;;;;;;5085327;28;27395;-50
2021/01/13 19:22:39;;;;;;;13.38;7.43;;;2.20;95.30;;;;;;5085478;28;27461;-50
2021/01/13 19:25:23;;;;;;;15.00;7.53;;;2.20;95.30;;;;;;5085229;28;27400;-49
2021/01/13 19:28:08;;;;;;;13.55;7.97;;;2.20;95.20;;;;;;5085113;28;27487;-49
2021/01/13 19:30:53;;;;;;;14.02;7.57;;;2.20;95.30;;;;;;5084731;28;28001;-51
2021/01/13 19:33:38;;;;;;;15.35;8.18;;;2.20;95.30;;;;;;5085036;28;27497;-49
2021/01/13 19:36:23;;;;;;;16.10;7.95;;;2.20;95.30;;;;;;5085009;28;27405;-50
2021/01/13 19:39:07;;;;;;;16.08;8.07;;;2.20;95.40;;;;;;5081739;28;27447;-48
2021/01/13 19:41:52;;;;;;;15.07;7.90;;;2.20;95.40;;;;;;5084268;28;27657;-48
2021/01/13 19:44:36;;;;;;;12.98;7.32;;;2.20;95.40;;;;;;5084858;28;27420;-48
2021/01/13 19:47:21;;;;;;;14.65;8.13;;;2.20;95.40;;;;;;5085205;28;27447;-51
2021/01/13 19:50:06;;;;;;;14.23;7.50;;;2.20;95.50;;;;;;5084208;28;27409;-47
2021/01/13 19:52:52;;;;;;;12.75;6.88;;;2.20;95.50;;;;;;5084919;28;27991;-49
2021/01/13 19:55:37;;;;;;;12.45;7.22;;;2.20;95.60;;;;;;5084854;28;27458;-49
2021/01/13 19:58:22;;;;;;;10.52;6.32;;;2.20;95.60;;;;;;5084252;28;27502;-47
2021/01/13 20:01:06;;;;;;;11.80;7.07;;;2.20;95.60;;;;;;5084783;28;27409;-47
2021/01/13 20:03:51;;;;;;;10.57;6.35;;;2.20;95.60;;;;;;5084800;28;27442;-48
2021/01/13 20:06:42;;;;;;;9.25;5.65;;;2.20;95.60;;;;;;5084828;28;27479;-47
2021/01/13 20:09:27;;;;;;;7.95;5.38;;;2.20;95.60;;;;;;5084569;28;27365;-50
2021/01/13 20:12:11;;;;;;;8.55;5.55;;;2.20;95.60;;;;;;5084760;28;27402;-48
2021/01/13 20:14:56;;;;;;;10.60;5.63;;;2.20;95.70;;;;;;5084430;28;27857;-48
2021/01/13 20:17:41;;;;;;;9.35;5.97;;;2.20;95.60;;;;;;5084680;28;27376;-48
2021/01/13 20:20:26;;;;;;;8.05;5.00;;;2.30;95.70;;;;;;5084609;28;27368;-49
2021/01/13 20:23:10;;;;;;;9.60;5.03;;;2.30;95.70;;;;;;5069114;28;27566;-47
2021/01/13 20:25:55;;;;;;;11.23;5.63;;;2.30;95.70;;;;;;5069519;28;27391;-48
2021/01/13 20:28:41;;;;;;;10.65;6.57;;;2.30;95.70;;;;;;5084145;28;27400;-47
2021/01/13 20:31:26;;;;;;;12.15;6.72;;;2.30;95.70;;;;;;5084454;28;27432;-48
2021/01/13 20:34:11;;;;;;;9.38;6.20;;;2.30;95.80;;;;;;5080961;28;27392;-50
2021/01/13 20:36:56;;;;;;;9.82;5.82;;;2.30;95.80;;;;;;5065757;28;27434;-47
2021/01/13 20:39:41;;;;;;;9.43;5.80;;;2.30;95.80;;;;;;5084348;28;27610;-52
2021/01/13 20:42:25;;;;;;;7.57;4.63;;;2.30;95.80;;;;;;5083727;28;27330;-48
2021/01/13 20:45:11;;;;;;;8.48;5.07;;;2.30;95.90;;;;;;5084229;28;27391;-47
2021/01/13 20:47:56;;;;;;;8.63;4.97;;;2.30;95.90;;;;;;5084268;28;27379;-48
2021/01/13 20:50:44;;;;;;;9.52;5.55;;;2.30;96.00;;;;;;5084073;28;27328;-49
2021/01/13 20:53:29;;;;;;;9.90;4.82;;;2.30;96.00;;;;;;5080751;28;27620;-50
2021/01/13 20:56:14;;;;;;;8.88;4.57;;;2.30;96.00;;;;;;5084376;28;27645;-47
2021/01/13 20:58:58;;;;;;;9.25;5.30;;;2.30;96.00;;;;;;5084181;28;27947;-50
2021/01/13 21:01:44;;;;;;;12.95;5.35;;;2.30;96.00;;;;;;5083566;28;27404;-49
2021/01/13 21:04:28;;;;;;;9.73;5.38;;;2.30;95.90;;;;;;5087368;28;27409;-48
2021/01/13 21:07:13;;;;;;;11.32;5.47;;;2.30;96.00;;;;;;5087517;28;27384;-49
2021/01/13 21:10:01;;;;;;;10.25;4.97;;;2.30;96.00;;;;;;5072451;28;27402;-50
2021/01/13 21:12:46;;;;;;;9.05;5.13;;;2.30;96.00;;;;;;5087248;28;27459;-50
2021/01/13 21:15:30;;;;;;;7.93;5.05;;;2.30;96.00;;;;;;5087430;28;27412;-49
2021/01/13 21:18:15;;;;;;;8.40;5.18;;;2.30;96.00;;;;;;5087014;28;27414;-49
2021/01/13 21:20:59;;;;;;;10.80;5.55;;;2.30;96.00;;;;;;5087601;28;27444;-50
2021/01/13 21:23:44;;;;;;;9.75;5.00;;;2.30;96.00;;;;;;5087378;28;27333;-51
2021/01/13 21:26:31;;;;;;;9.70;4.40;;;2.30;95.90;;;;;;5088182;28;27749;-49
2021/01/13 21:29:15;;;;;;;8.57;5.18;;;2.30;95.90;;;;;;5084235;28;27498;-48
2021/01/13 21:32:00;;;;;;;9.05;5.00;;;2.30;95.90;;;;;;5087484;28;27443;-49
2021/01/13 21:34:44;;;;;;;7.15;4.38;;;2.30;95.90;;;;;;5072073;28;27506;-48
2021/01/13 21:37:30;;;;;;;8.27;4.10;;;2.30;95.90;;;;;;5087358;28;27392;-49
2021/01/13 21:40:14;;;;;;;6.55;4.13;;;2.30;96.00;;;;;;5068114;28;27491;-49
2021/01/13 21:42:59;;;;;;;6.35;4.13;;;2.30;95.90;;;;;;5086727;28;27462;-49
2021/01/13 21:45:44;;;;;;;5.63;3.05;;;2.30;96.00;;;;;;5087232;28;27499;-49
2021/01/13 21:48:28;;;;;;;6.03;3.38;;;2.30;96.00;;;;;;5083550;28;27333;-48
2021/01/13 21:51:14;;;;;;;6.70;3.17;;;2.30;95.90;;;;;;5086731;28;27382;-49
2021/01/13 21:53:59;;;;;;;6.78;3.55;;;2.30;95.90;;;;;;5086663;28;27426;-50
2021/01/13 21:56:44;;;;;;;5.43;3.50;;;2.30;95.90;;;;;;5086902;28;27388;-49
2021/01/13 21:59:29;;;;;;;5.40;3.72;;;2.30;95.90;;;;;;5087339;28;27352;-52
2021/01/13 22:02:14;;;;;;;5.88;3.22;;;2.30;95.90;;;;;;5086656;28;27452;-49
2021/01/13 22:04:58;;;;;;;5.00;3.33;;;2.30;95.90;;;;;;5086480;28;27403;-49
2021/01/13 22:07:43;;;;;;;4.53;2.70;;;2.30;96.00;;;;;;5086519;28;27400;-51
2021/01/13 22:10:28;;;;;;;4.38;2.70;;;2.30;96.00;;;;;;5086763;28;27383;-49
2021/01/13 22:13:13;;;;;;;4.38;2.85;;;2.30;96.00;;;;;;5085354;28;27372;-50
2021/01/13 22:15:58;;;;;;;6.82;3.00;;;2.30;96.10;;;;;;5086299;28;27358;-49
2021/01/13 22:18:43;;;;;;;5.43;2.45;;;2.30;96.10;;;;;;5086176;28;27452;-48
2021/01/13 22:21:27;;;;;;;5.22;2.53;;;2.30;96.10;;;;;;5086306;28;27399;-50
2021/01/13 22:24:11;;;;;;;3.05;2.20;;;2.30;96.20;;;;;;5071355;28;27315;-49
2021/01/13 22:26:56;;;;;;;3.38;2.10;;;2.30;96.20;;;;;;5086383;28;27400;-49
2021/01/13 22:29:40;;;;;;;4.43;2.60;;;2.30;96.10;;;;;;5070961;28;27416;-49
2021/01/13 22:32:25;;;;;;;3.20;2.10;;;2.30;96.10;;;;;;5086218;28;27340;-49
2021/01/13 22:35:09;;;;;;;3.92;2.55;;;2.30;96.00;;;;;;5086236;28;27366;-48
2021/01/13 22:37:54;;;;;;;3.75;1.95;;;2.40;96.10;;;;;;5085965;28;27431;-48
2021/01/13 22:40:39;;;;;;;3.08;2.00;;;2.40;96.10;;;;;;5085488;28;27468;-49
2021/01/13 22:43:23;;;;;;;4.85;2.47;;;2.30;96.10;;;;;;5067615;28;27511;-50
2021/01/13 22:46:08;;;;;;;2.55;1.73;;;2.40;96.10;;;;;;5086109;28;27521;-47
2021/01/13 22:48:52;;;;;;;3.35;1.80;;;2.30;96.00;;;;;;5085725;28;27991;-50
2021/01/13 22:51:38;;;;;;;6.18;2.10;;;2.40;96.10;;;;;;5085655;28;27428;-49
2021/01/13 22:54:22;;;;;;;4.20;2.00;;;2.40;96.10;;;;;;5086017;28;27445;-49
2021/01/13 22:57:10;;;;;;;2.58;1.83;;;2.40;96.10;;;;;;5085942;28;27405;-49
2021/01/13 22:59:54;;;;;;;2.38;1.85;;;2.40;96.20;;;;;;5085626;28;27466;-47
2021/01/13 23:02:39;;;;;;;2.67;1.85;;;2.40;96.10;;;;;;5085436;28;27475;-50
2021/01/13 23:05:24;;;;;;;4.55;1.75;;;2.40;96.20;;;;;;5085837;28;27358;-48
2021/01/13 23:08:11;;;;;;;3.08;1.67;;;2.40;96.20;;;;;;5085394;28;28077;-49
2021/01/13 23:10:56;;;;;;;4.28;1.75;;;2.40;96.20;;;;;;5085369;28;28068;-49
2021/01/13 23:13:40;;;;;;;2.72;1.80;;;2.40;96.20;;;;;;5070296;28;27415;-48
2021/01/13 23:16:24;;;;;;;4.00;1.50;;;2.40;96.20;;;;;;5085647;28;27357;-50
2021/01/13 23:19:09;;;;;;;3.22;2.13;;;2.40;96.20;;;;;;5085619;28;27463;-50
2021/01/13 23:21:53;;;;;;;2.47;1.70;;;2.40;96.20;;;;;;5085189;28;27975;-48
2021/01/13 23:24:38;;;;;;;2.30;1.50;;;2.40;96.20;;;;;;5084500;28;27540;-49
2021/01/13 23:27:22;;;;;;;1.48;1.23;;;2.40;96.20;;;;;;5085158;28;27479;-48
2021/01/13 23:30:15;;;;;;;2.28;1.70;;;2.40;96.20;;;;;;5085128;28;27475;-49
2021/01/13 23:33:00;;;;;;;2.33;1.60;;;2.40;96.20;;;;;;5085305;28;27491;-49
2021/01/13 23:35:45;;;;;;;1.73;1.52;;;2.40;96.20;;;;;;5084987;28;27436;-47
2021/01/13 23:38:29;;;;;;;2.83;1.60;;;2.40;96.20;;;;;;5082071;28;27413;-49
2021/01/13 23:41:14;;;;;;;1.83;1.30;;;2.40;96.60;;;;;;5084225;28;27416;-48
2021/01/13 23:43:59;;;;;;;2.47;1.60;;;2.40;96.20;;;;;;5069934;28;27841;-48
2021/01/13 23:46:43;;;;;;;3.35;1.52;;;2.40;96.20;;;;;;5084822;28;27357;-50
2021/01/13 23:49:28;;;;;;;2.33;1.50;;;2.40;96.30;;;;;;5084863;28;27423;-48
2021/01/13 23:52:13;;;;;;;2.50;1.50;;;2.40;96.30;;;;;;5085104;28;27384;-48
2021/01/13 23:54:57;;;;;;;2.08;1.52;;;2.40;96.20;;;;;;5084715;28;27973;-49
2021/01/13 23:57:42;;;;;;;1.38;1.23;;;2.40;96.30;;;;;;5084958;28;27384;-50
